sensor_id;sensor_type;location;lat;lon;timestamp;pressure;altitude;pressure_sealevel;temperature;humidity
76478;BME280;65309;49.790;18.972;2023-06-22T00:00:59;96942.44;;;17.27;100.00
76478;BME280;65309;49.790;18.972;2023-06-22T00:06:07;96932.38;;;17.13;100.00
76478;BME280;65309;49.790;18.972;2023-06-22T00:11:09;96919.19;;;17.08;100.00
76478;BME280;65309;49.790;18.972;2023-06-22T00:16:12;96927.31;;;17.11;100.00
76478;BME280;65309;49.790;18.972;2023-06-22T00:21:14;96933.41;;;17.10;100.00
76478;BME280;65309;49.790;18.972;2023-06-22T00:26:16;96931.88;;;17.09;100.00
76478;BME280;65309;49.790;18.972;2023-06-22T00:31:20;96921.78;;;17.00;100.00
76478;BME280;65309;49.790;18.972;2023-06-22T00:36:22;96921.03;;;16.99;100.00
76478;BME280;65309;49.790;18.972;2023-06-22T00:41:26;96928.38;;;17.02;100.00
76478;BME280;65309;49.790;18.972;2023-06-22T00:46:31;96926.00;;;17.12;100.00
76478;BME280;65309;49.790;18.972;2023-06-22T00:51:34;96933.97;;;17.02;100.00
76478;BME280;65309;49.790;18.972;2023-06-22T00:56:40;96934.19;;;17.10;100.00
76478;BME280;65309;49.790;18.972;2023-06-22T01:01:44;96924.78;;;17.08;100.00
76478;BME280;65309;49.790;18.972;2023-06-22T01:06:53;96918.72;;;17.03;100.00
76478;BME280;65309;49.790;18.972;2023-06-22T01:12:00;96906.03;;;17.02;100.00
76478;BME280;65309;49.790;18.972;2023-06-22T01:17:05;96907.28;;;17.07;100.00
76478;BME280;65309;49.790;18.972;2023-06-22T01:22:10;96912.03;;;17.12;100.00
76478;BME280;65309;49.790;18.972;2023-06-22T01:27:26;96907.94;;;17.19;100.00
76478;BME280;65309;49.790;18.972;2023-06-22T01:32:33;96903.34;;;17.21;100.00
76478;BME280;65309;49.790;18.972;2023-06-22T01:37:38;96895.59;;;17.33;100.00
76478;BME280;65309;49.790;18.972;2023-06-22T01:42:41;96895.09;;;17.34;100.00
76478;BME280;65309;49.790;18.972;2023-06-22T01:47:47;96894.38;;;17.58;100.00
76478;BME280;65309;49.790;18.972;2023-06-22T01:52:49;96904.47;;;17.91;100.00
76478;BME280;65309;49.790;18.972;2023-06-22T01:57:51;96907.81;;;17.89;100.00
76478;BME280;65309;49.790;18.972;2023-06-22T02:02:59;96911.28;;;17.96;100.00
76478;BME280;65309;49.790;18.972;2023-06-22T02:08:08;96911.53;;;17.73;100.00
76478;BME280;65309;49.790;18.972;2023-06-22T02:13:12;96924.06;;;17.67;100.00
76478;BME280;65309;49.790;18.972;2023-06-22T02:18:16;96935.56;;;17.58;100.00
76478;BME280;65309;49.790;18.972;2023-06-22T02:23:18;96951.16;;;17.77;100.00
76478;BME280;65309;49.790;18.972;2023-06-22T02:28:19;96967.19;;;17.47;100.00
76478;BME280;65309;49.790;18.972;2023-06-22T02:33:23;96959.66;;;17.36;100.00
76478;BME280;65309;49.790;18.972;2023-06-22T02:38:25;96963.09;;;17.13;100.00
76478;BME280;65309;49.790;18.972;2023-06-22T02:43:28;96967.25;;;17.00;100.00
76478;BME280;65309;49.790;18.972;2023-06-22T02:48:31;96959.34;;;17.05;100.00
76478;BME280;65309;49.790;18.972;2023-06-22T02:53:33;96956.34;;;17.02;100.00
76478;BME280;65309;49.790;18.972;2023-06-22T02:58:36;96968.50;;;17.05;100.00
76478;BME280;65309;49.790;18.972;2023-06-22T03:03:41;96978.53;;;17.55;100.00
76478;BME280;65309;49.790;18.972;2023-06-22T03:08:43;97000.22;;;17.78;100.00
76478;BME280;65309;49.790;18.972;2023-06-22T03:13:45;96995.56;;;17.57;100.00
76478;BME280;65309;49.790;18.972;2023-06-22T03:18:49;97006.31;;;17.47;100.00
76478;BME280;65309;49.790;18.972;2023-06-22T03:23:51;97008.31;;;17.52;100.00
76478;BME280;65309;49.790;18.972;2023-06-22T03:28:53;97012.06;;;17.66;100.00
76478;BME280;65309;49.790;18.972;2023-06-22T03:33:57;97014.72;;;17.82;100.00
76478;BME280;65309;49.790;18.972;2023-06-22T03:38:59;97015.84;;;17.98;100.00
76478;BME280;65309;49.790;18.972;2023-06-22T03:44:01;97022.09;;;18.34;100.00
76478;BME280;65309;49.790;18.972;2023-06-22T03:49:04;97016.53;;;18.96;100.00
76478;BME280;65309;49.790;18.972;2023-06-22T03:54:06;97012.22;;;19.96;100.00
76478;BME280;65309;49.790;18.972;2023-06-22T03:59:08;97019.84;;;20.66;95.32
76478;BME280;65309;49.790;18.972;2023-06-22T04:04:13;97031.88;;;20.41;95.54
76478;BME280;65309;49.790;18.972;2023-06-22T04:09:15;97016.47;;;20.15;98.87
76478;BME280;65309;49.790;18.972;2023-06-22T04:14:18;97009.66;;;20.11;99.69
76478;BME280;65309;49.790;18.972;2023-06-22T04:19:21;97004.03;;;20.11;100.00
76478;BME280;65309;49.790;18.972;2023-06-22T04:24:23;97005.03;;;20.27;98.54
76478;BME280;65309;49.790;18.972;2023-06-22T04:29:25;97020.50;;;20.73;95.51
76478;BME280;65309;49.790;18.972;2023-06-22T04:34:32;97019.66;;;20.64;95.44
76478;BME280;65309;49.790;18.972;2023-06-22T04:39:34;97029.50;;;20.58;96.16
76478;BME280;65309;49.790;18.972;2023-06-22T04:44:36;97034.03;;;20.61;96.33
76478;BME280;65309;49.790;18.972;2023-06-22T04:49:39;97046.66;;;20.67;95.67
76478;BME280;65309;49.790;18.972;2023-06-22T04:54:44;97052.28;;;20.81;95.97
76478;BME280;65309;49.790;18.972;2023-06-22T04:59:50;97063.28;;;20.92;93.77
76478;BME280;65309;49.790;18.972;2023-06-22T05:04:53;97058.22;;;20.90;92.92
76478;BME280;65309;49.790;18.972;2023-06-22T05:09:59;97051.84;;;20.77;95.02
76478;BME280;65309;49.790;18.972;2023-06-22T05:15:01;97061.25;;;20.79;92.86
76478;BME280;65309;49.790;18.972;2023-06-22T05:20:06;97056.59;;;20.95;93.00
76478;BME280;65309;49.790;18.972;2023-06-22T05:25:10;97066.31;;;21.20;91.88
76478;BME280;65309;49.790;18.972;2023-06-22T05:30:12;97067.50;;;21.11;93.21
76478;BME280;65309;49.790;18.972;2023-06-22T05:35:16;97073.84;;;21.38;90.90
76478;BME280;65309;49.790;18.972;2023-06-22T05:40:19;97084.16;;;21.36;91.92
76478;BME280;65309;49.790;18.972;2023-06-22T05:45:21;97083.13;;;21.46;90.75
76478;BME280;65309;49.790;18.972;2023-06-22T05:50:24;97084.69;;;21.34;89.98
76478;BME280;65309;49.790;18.972;2023-06-22T05:55:26;97085.38;;;21.61;89.15
76478;BME280;65309;49.790;18.972;2023-06-22T06:00:28;97079.03;;;21.47;89.59
76478;BME280;65309;49.790;18.972;2023-06-22T06:05:33;97078.91;;;21.53;90.23
76478;BME280;65309;49.790;18.972;2023-06-22T06:10:35;97084.31;;;21.51;91.50
76478;BME280;65309;49.790;18.972;2023-06-22T06:15:37;97087.13;;;21.51;90.76
76478;BME280;65309;49.790;18.972;2023-06-22T06:20:41;97076.84;;;21.53;90.87
76478;BME280;65309;49.790;18.972;2023-06-22T06:25:43;97082.91;;;21.58;90.47
76478;BME280;65309;49.790;18.972;2023-06-22T06:30:45;97095.06;;;21.73;90.67
76478;BME280;65309;49.790;18.972;2023-06-22T06:35:50;97081.75;;;21.74;91.67
76478;BME280;65309;49.790;18.972;2023-06-22T06:40:52;97086.50;;;21.79;90.97
76478;BME280;65309;49.790;18.972;2023-06-22T06:45:54;97085.56;;;21.97;90.17
76478;BME280;65309;49.790;18.972;2023-06-22T06:50:58;97086.59;;;22.28;90.47
76478;BME280;65309;49.790;18.972;2023-06-22T06:56:00;97094.75;;;22.39;88.72
76478;BME280;65309;49.790;18.972;2023-06-22T07:01:02;97095.97;;;22.51;89.33
76478;BME280;65309;49.790;18.972;2023-06-22T07:06:06;97086.84;;;22.58;90.24
76478;BME280;65309;49.790;18.972;2023-06-22T07:11:08;97100.31;;;23.09;86.55
76478;BME280;65309;49.790;18.972;2023-06-22T07:16:10;97103.00;;;23.14;85.21
76478;BME280;65309;49.790;18.972;2023-06-22T07:21:13;97109.34;;;23.07;85.83
76478;BME280;65309;49.790;18.972;2023-06-22T07:26:15;97104.94;;;23.27;85.89
76478;BME280;65309;49.790;18.972;2023-06-22T07:31:18;97106.88;;;23.39;87.36
76478;BME280;65309;49.790;18.972;2023-06-22T07:36:22;97109.25;;;23.64;86.36
76478;BME280;65309;49.790;18.972;2023-06-22T07:41:24;97118.34;;;23.77;85.28
76478;BME280;65309;49.790;18.972;2023-06-22T07:46:26;97123.16;;;24.20;81.85
76478;BME280;65309;49.790;18.972;2023-06-22T07:51:29;97127.13;;;24.70;79.60
76478;BME280;65309;49.790;18.972;2023-06-22T07:56:31;97130.91;;;24.43;80.69
76478;BME280;65309;49.790;18.972;2023-06-22T08:01:34;97128.28;;;24.30;81.45
76478;BME280;65309;49.790;18.972;2023-06-22T08:06:38;97116.16;;;24.14;82.03
76478;BME280;65309;49.790;18.972;2023-06-22T08:11:40;97135.06;;;24.49;81.26
76478;BME280;65309;49.790;18.972;2023-06-22T08:16:42;97139.59;;;24.30;84.49
76478;BME280;65309;49.790;18.972;2023-06-22T08:21:45;97140.28;;;24.15;84.63
76478;BME280;65309;49.790;18.972;2023-06-22T08:26:49;97143.72;;;24.28;82.32
76478;BME280;65309;49.790;18.972;2023-06-22T08:31:51;97146.00;;;24.53;82.79
76478;BME280;65309;49.790;18.972;2023-06-22T08:36:55;97158.00;;;25.37;77.15
76478;BME280;65309;49.790;18.972;2023-06-22T08:41:56;97155.84;;;25.60;76.03
76478;BME280;65309;49.790;18.972;2023-06-22T08:46:58;97156.19;;;26.12;76.29
76478;BME280;65309;49.790;18.972;2023-06-22T08:52:02;97166.66;;;25.54;77.41
76478;BME280;65309;49.790;18.972;2023-06-22T08:57:05;97163.22;;;25.63;77.61
76478;BME280;65309;49.790;18.972;2023-06-22T09:02:07;97170.88;;;26.18;72.90
76478;BME280;65309;49.790;18.972;2023-06-22T09:07:11;97175.44;;;26.21;73.54
76478;BME280;65309;49.790;18.972;2023-06-22T09:12:13;97157.28;;;25.76;73.95
76478;BME280;65309;49.790;18.972;2023-06-22T09:17:15;97162.03;;;26.46;70.49
76478;BME280;65309;49.790;18.972;2023-06-22T09:22:18;97152.59;;;26.43;72.01
76478;BME280;65309;49.790;18.972;2023-06-22T09:27:20;97155.38;;;27.01;65.24
76478;BME280;65309;49.790;18.972;2023-06-22T09:32:23;97149.34;;;26.47;68.17
76478;BME280;65309;49.790;18.972;2023-06-22T09:37:26;97146.00;;;26.08;66.97
76478;BME280;65309;49.790;18.972;2023-06-22T09:42:28;97140.78;;;25.90;65.76
76478;BME280;65309;49.790;18.972;2023-06-22T09:47:30;97137.00;;;26.52;67.72
76478;BME280;65309;49.790;18.972;2023-06-22T09:52:33;97139.56;;;26.40;65.55
76478;BME280;65309;49.790;18.972;2023-06-22T09:57:49;97130.28;;;26.40;66.23
76478;BME280;65309;49.790;18.972;2023-06-22T10:02:51;97130.22;;;26.72;63.62
76478;BME280;65309;49.790;18.972;2023-06-22T10:07:55;97121.31;;;26.26;63.96
76478;BME280;65309;49.790;18.972;2023-06-22T10:13:02;97128.69;;;26.54;68.31
76478;BME280;65309;49.790;18.972;2023-06-22T10:18:05;97122.88;;;26.20;67.45
76478;BME280;65309;49.790;18.972;2023-06-22T10:23:08;97122.13;;;26.69;68.47
76478;BME280;65309;49.790;18.972;2023-06-22T10:28:10;97116.59;;;26.95;62.71
76478;BME280;65309;49.790;18.972;2023-06-22T10:33:12;97110.31;;;25.98;65.37
76478;BME280;65309;49.790;18.972;2023-06-22T10:38:16;97101.91;;;27.41;66.47
76478;BME280;65309;49.790;18.972;2023-06-22T10:43:18;97111.00;;;27.22;61.00
76478;BME280;65309;49.790;18.972;2023-06-22T10:48:20;97112.19;;;26.77;61.42
76478;BME280;65309;49.790;18.972;2023-06-22T10:53:23;97108.91;;;27.40;60.92
76478;BME280;65309;49.790;18.972;2023-06-22T10:58:25;97113.91;;;27.83;61.29
76478;BME280;65309;49.790;18.972;2023-06-22T11:03:28;97115.91;;;29.19;56.42
76478;BME280;65309;49.790;18.972;2023-06-22T11:08:32;97094.13;;;28.75;58.58
76478;BME280;65309;49.790;18.972;2023-06-22T11:13:34;97102.16;;;27.97;59.02
76478;BME280;65309;49.790;18.972;2023-06-22T11:18:36;97083.28;;;26.54;66.65
76478;BME280;65309;49.790;18.972;2023-06-22T11:23:39;97085.16;;;26.76;65.00
76478;BME280;65309;49.790;18.972;2023-06-22T11:28:41;97080.69;;;27.59;62.71
76478;BME280;65309;49.790;18.972;2023-06-22T11:33:43;97082.88;;;27.51;59.97
76478;BME280;65309;49.790;18.972;2023-06-22T11:38:49;97085.16;;;27.79;60.39
76478;BME280;65309;49.790;18.972;2023-06-22T11:43:51;97076.06;;;27.64;57.11
76478;BME280;65309;49.790;18.972;2023-06-22T11:48:53;97069.56;;;27.36;63.23
76478;BME280;65309;49.790;18.972;2023-06-22T11:53:56;97071.16;;;28.18;58.27
76478;BME280;65309;49.790;18.972;2023-06-22T11:58:58;97069.88;;;28.94;59.45
76478;BME280;65309;49.790;18.972;2023-06-22T12:04:00;97051.13;;;27.99;60.33
76478;BME280;65309;49.790;18.972;2023-06-22T12:09:04;97055.34;;;28.07;58.01
76478;BME280;65309;49.790;18.972;2023-06-22T12:14:06;97045.38;;;28.62;58.90
76478;BME280;65309;49.790;18.972;2023-06-22T12:19:09;97045.75;;;28.95;55.50
76478;BME280;65309;49.790;18.972;2023-06-22T12:24:12;97034.22;;;27.47;56.23
76478;BME280;65309;49.790;18.972;2023-06-22T12:29:14;97038.81;;;28.23;56.42
76478;BME280;65309;49.790;18.972;2023-06-22T12:34:16;97023.94;;;27.78;53.50
76478;BME280;65309;49.790;18.972;2023-06-22T12:39:20;97023.66;;;28.66;53.65
76478;BME280;65309;49.790;18.972;2023-06-22T12:44:22;97027.88;;;28.19;56.29
76478;BME280;65309;49.790;18.972;2023-06-22T12:49:24;97024.88;;;28.63;57.88
76478;BME280;65309;49.790;18.972;2023-06-22T12:54:27;97019.09;;;28.25;56.59
76478;BME280;65309;49.790;18.972;2023-06-22T12:59:36;97021.00;;;29.07;55.27
76478;BME280;65309;49.790;18.972;2023-06-22T13:04:38;97017.22;;;29.72;52.75
76478;BME280;65309;49.790;18.972;2023-06-22T13:09:41;97008.03;;;29.73;51.24
76478;BME280;65309;49.790;18.972;2023-06-22T13:14:43;97013.78;;;29.63;52.42
76478;BME280;65309;49.790;18.972;2023-06-22T13:19:46;97005.25;;;29.54;53.83
76478;BME280;65309;49.790;18.972;2023-06-22T13:24:49;96993.38;;;29.57;53.15
76478;BME280;65309;49.790;18.972;2023-06-22T13:29:52;96995.47;;;29.66;50.95
76478;BME280;65309;49.790;18.972;2023-06-22T13:34:54;96989.84;;;28.70;54.28
76478;BME280;65309;49.790;18.972;2023-06-22T13:39:58;96985.50;;;28.98;53.98
76478;BME280;65309;49.790;18.972;2023-06-22T13:45:01;96986.53;;;29.22;50.94
76478;BME280;65309;49.790;18.972;2023-06-22T13:50:04;96980.94;;;29.43;53.26
76478;BME280;65309;49.790;18.972;2023-06-22T13:55:09;96977.09;;;29.39;51.83
76478;BME280;65309;49.790;18.972;2023-06-22T14:00:12;96972.22;;;29.60;50.50
76478;BME280;65309;49.790;18.972;2023-06-22T14:05:14;96966.44;;;29.89;48.32
76478;BME280;65309;49.790;18.972;2023-06-22T14:10:18;96963.84;;;30.24;48.48
76478;BME280;65309;49.790;18.972;2023-06-22T14:15:20;96973.88;;;29.63;50.83
76478;BME280;65309;49.790;18.972;2023-06-22T14:20:22;96970.69;;;29.69;48.91
76478;BME280;65309;49.790;18.972;2023-06-22T14:25:25;96970.44;;;29.55;48.82
76478;BME280;65309;49.790;18.972;2023-06-22T14:30:27;96954.88;;;29.37;48.85
76478;BME280;65309;49.790;18.972;2023-06-22T14:35:30;96949.94;;;29.38;48.75
76478;BME280;65309;49.790;18.972;2023-06-22T14:40:33;96956.34;;;29.48;50.83
76478;BME280;65309;49.790;18.972;2023-06-22T14:45:49;96956.13;;;29.75;47.85
76478;BME280;65309;49.790;18.972;2023-06-22T14:50:53;96955.47;;;29.45;47.42
76478;BME280;65309;49.790;18.972;2023-06-22T14:55:57;96950.41;;;29.34;50.30
76478;BME280;65309;49.790;18.972;2023-06-22T15:00:59;96946.66;;;29.22;46.44
76478;BME280;65309;49.790;18.972;2023-06-22T15:06:03;96948.59;;;29.19;46.63
76478;BME280;65309;49.790;18.972;2023-06-22T15:11:06;96945.44;;;29.25;48.70
76478;BME280;65309;49.790;18.972;2023-06-22T15:16:09;96945.09;;;29.50;46.98
76478;BME280;65309;49.790;18.972;2023-06-22T15:21:11;96936.16;;;29.34;46.30
76478;BME280;65309;49.790;18.972;2023-06-22T15:26:14;96945.81;;;29.60;46.61
76478;BME280;65309;49.790;18.972;2023-06-22T15:31:16;96939.09;;;29.55;45.27
76478;BME280;65309;49.790;18.972;2023-06-22T15:36:19;96932.75;;;29.66;47.34
76478;BME280;65309;49.790;18.972;2023-06-22T15:41:22;96940.75;;;30.51;41.78
76478;BME280;65309;49.790;18.972;2023-06-22T15:46:24;96933.47;;;30.59;42.39
76478;BME280;65309;49.790;18.972;2023-06-22T15:51:27;96927.47;;;30.34;45.92
76478;BME280;65309;49.790;18.972;2023-06-22T15:56:31;96924.06;;;30.69;44.98
76478;BME280;65309;49.790;18.972;2023-06-22T16:01:33;96925.09;;;31.39;43.64
76478;BME280;65309;49.790;18.972;2023-06-22T16:06:36;96926.47;;;32.43;39.96
76478;BME280;65309;49.790;18.972;2023-06-22T16:11:39;96918.53;;;32.78;41.25
76478;BME280;65309;49.790;18.972;2023-06-22T16:16:41;96916.84;;;32.61;39.90
76478;BME280;65309;49.790;18.972;2023-06-22T16:21:43;96920.09;;;32.56;41.00
76478;BME280;65309;49.790;18.972;2023-06-22T16:26:47;96910.13;;;32.57;40.69
76478;BME280;65309;49.790;18.972;2023-06-22T16:31:49;96900.50;;;31.92;39.05
76478;BME280;65309;49.790;18.972;2023-06-22T16:36:51;96901.38;;;31.94;41.54
76478;BME280;65309;49.790;18.972;2023-06-22T16:41:55;96900.50;;;32.27;40.04
76478;BME280;65309;49.790;18.972;2023-06-22T16:46:58;96890.16;;;30.96;42.06
76478;BME280;65309;49.790;18.972;2023-06-22T16:52:00;96893.06;;;30.75;41.68
76478;BME280;65309;49.790;18.972;2023-06-22T16:57:05;96888.16;;;30.66;47.06
76478;BME280;65309;49.790;18.972;2023-06-22T17:02:11;96881.94;;;30.57;50.97
76478;BME280;65309;49.790;18.972;2023-06-22T17:07:19;96871.19;;;30.04;53.64
76478;BME280;65309;49.790;18.972;2023-06-22T17:12:24;96866.09;;;29.72;55.01
76478;BME280;65309;49.790;18.972;2023-06-22T17:17:27;96861.44;;;29.76;53.08
76478;BME280;65309;49.790;18.972;2023-06-22T17:22:32;96856.09;;;29.61;55.31
76478;BME280;65309;49.790;18.972;2023-06-22T17:27:39;96856.56;;;29.07;56.63
76478;BME280;65309;49.790;18.972;2023-06-22T17:32:45;96853.50;;;28.74;57.48
76478;BME280;65309;49.790;18.972;2023-06-22T17:37:48;96857.38;;;28.31;59.42
76478;BME280;65309;49.790;18.972;2023-06-22T17:43:02;96852.88;;;28.09;60.21
76478;BME280;65309;49.790;18.972;2023-06-22T17:48:07;96841.09;;;27.66;62.36
76478;BME280;65309;49.790;18.972;2023-06-22T17:53:12;96832.09;;;27.60;62.78
76478;BME280;65309;49.790;18.972;2023-06-22T17:58:15;96822.56;;;26.92;65.01
76478;BME280;65309;49.790;18.972;2023-06-22T18:03:23;96818.44;;;26.59;66.20
76478;BME280;65309;49.790;18.972;2023-06-22T18:08:25;96811.97;;;26.15;66.97
76478;BME280;65309;49.790;18.972;2023-06-22T18:13:30;96805.69;;;25.40;70.68
76478;BME280;65309;49.790;18.972;2023-06-22T18:18:33;96788.25;;;25.01;72.63
76478;BME280;65309;49.790;18.972;2023-06-22T18:23:36;96792.97;;;24.34;76.19
76478;BME280;65309;49.790;18.972;2023-06-22T18:28:40;96793.47;;;24.00;79.08
76478;BME280;65309;49.790;18.972;2023-06-22T18:33:42;96787.28;;;23.71;79.99
76478;BME280;65309;49.790;18.972;2023-06-22T18:38:45;96784.72;;;23.43;81.26
76478;BME280;65309;49.790;18.972;2023-06-22T18:43:54;96784.91;;;23.07;82.83
76478;BME280;65309;49.790;18.972;2023-06-22T18:48:59;96781.47;;;22.71;84.05
76478;BME280;65309;49.790;18.972;2023-06-22T18:54:05;96784.34;;;22.35;85.85
76478;BME280;65309;49.790;18.972;2023-06-22T18:59:12;96788.16;;;22.01;86.84
76478;BME280;65309;49.790;18.972;2023-06-22T19:04:14;96783.09;;;21.72;88.63
76478;BME280;65309;49.790;18.972;2023-06-22T19:09:18;96780.53;;;21.45;89.91
76478;BME280;65309;49.790;18.972;2023-06-22T19:14:22;96790.75;;;21.35;90.31
76478;BME280;65309;49.790;18.972;2023-06-22T19:19:24;96791.94;;;21.19;91.43
76478;BME280;65309;49.790;18.972;2023-06-22T19:24:28;96794.13;;;20.92;92.93
76478;BME280;65309;49.790;18.972;2023-06-22T19:29:33;96796.94;;;20.72;93.35
76478;BME280;65309;49.790;18.972;2023-06-22T19:34:35;96796.84;;;20.64;93.36
76478;BME280;65309;49.790;18.972;2023-06-22T19:39:46;96793.44;;;20.58;93.45
76478;BME280;65309;49.790;18.972;2023-06-22T19:44:50;96789.34;;;20.46;93.88
76478;BME280;65309;49.790;18.972;2023-06-22T19:49:57;96789.06;;;20.36;93.92
76478;BME280;65309;49.790;18.972;2023-06-22T19:54:59;96782.81;;;20.17;95.75
76478;BME280;65309;49.790;18.972;2023-06-22T20:00:04;96776.19;;;19.94;97.27
76478;BME280;65309;49.790;18.972;2023-06-22T20:05:14;96788.50;;;19.78;98.13
76478;BME280;65309;49.790;18.972;2023-06-22T20:10:18;96780.53;;;19.68;99.08
76478;BME280;65309;49.790;18.972;2023-06-22T20:15:23;96777.28;;;19.64;98.86
76478;BME280;65309;49.790;18.972;2023-06-22T20:20:26;96761.66;;;19.69;97.88
76478;BME280;65309;49.790;18.972;2023-06-22T20:25:30;96753.50;;;19.92;97.18
76478;BME280;65309;49.790;18.972;2023-06-22T20:30:34;96742.84;;;20.24;96.05
76478;BME280;65309;49.790;18.972;2023-06-22T20:35:37;96740.44;;;20.41;94.30
76478;BME280;65309;49.790;18.972;2023-06-22T20:40:39;96732.63;;;20.68;93.79
76478;BME280;65309;49.790;18.972;2023-06-22T20:45:42;96733.66;;;20.78;92.40
76478;BME280;65309;49.790;18.972;2023-06-22T20:50:44;96728.63;;;20.84;91.90
76478;BME280;65309;49.790;18.972;2023-06-22T20:55:46;96723.59;;;20.83;91.92
76478;BME280;65309;49.790;18.972;2023-06-22T21:00:50;96725.22;;;20.99;90.19
76478;BME280;65309;49.790;18.972;2023-06-22T21:05:52;96714.00;;;21.06;89.74
76478;BME280;65309;49.790;18.972;2023-06-22T21:10:54;96716.06;;;21.27;89.40
76478;BME280;65309;49.790;18.972;2023-06-22T21:15:57;96729.72;;;21.58;86.33
76478;BME280;65309;49.790;18.972;2023-06-22T21:21:00;96731.84;;;21.66;85.16
76478;BME280;65309;49.790;18.972;2023-06-22T21:26:02;96726.72;;;21.56;84.91
76478;BME280;65309;49.790;18.972;2023-06-22T21:31:05;96736.19;;;21.38;87.61
76478;BME280;65309;49.790;18.972;2023-06-22T21:36:07;96720.00;;;21.03;90.47
76478;BME280;65309;49.790;18.972;2023-06-22T21:41:09;96706.56;;;20.67;92.31
76478;BME280;65309;49.790;18.972;2023-06-22T21:46:13;96704.94;;;20.31;94.91
76478;BME280;65309;49.790;18.972;2023-06-22T21:51:15;96698.75;;;19.98;96.92
76478;BME280;65309;49.790;18.972;2023-06-22T21:56:17;96704.09;;;19.75;98.94
76478;BME280;65309;49.790;18.972;2023-06-22T22:01:20;96697.34;;;19.58;100.00
76478;BME280;65309;49.790;18.972;2023-06-22T22:06:22;96679.00;;;19.44;100.00
76478;BME280;65309;49.790;18.972;2023-06-22T22:11:25;96675.84;;;19.34;100.00
76478;BME280;65309;49.790;18.972;2023-06-22T22:16:28;96655.91;;;19.24;100.00
76478;BME280;65309;49.790;18.972;2023-06-22T22:21:30;96637.50;;;19.16;100.00
76478;BME280;65309;49.790;18.972;2023-06-22T22:26:33;96631.91;;;19.03;100.00
76478;BME280;65309;49.790;18.972;2023-06-22T22:31:40;96621.88;;;18.94;100.00
76478;BME280;65309;49.790;18.972;2023-06-22T22:36:42;96622.72;;;18.89;100.00
76478;BME280;65309;49.790;18.972;2023-06-22T22:41:44;96606.00;;;18.83;100.00
76478;BME280;65309;49.790;18.972;2023-06-22T22:46:47;96595.69;;;18.78;100.00
76478;BME280;65309;49.790;18.972;2023-06-22T22:51:50;96579.06;;;18.67;100.00
76478;BME280;65309;49.790;18.972;2023-06-22T22:56:52;96569.59;;;18.57;100.00
76478;BME280;65309;49.790;18.972;2023-06-22T23:01:55;96561.03;;;18.50;100.00
76478;BME280;65309;49.790;18.972;2023-06-22T23:06:57;96570.31;;;18.45;100.00
76478;BME280;65309;49.790;18.972;2023-06-22T23:12:01;96581.09;;;18.41;100.00
76478;BME280;65309;49.790;18.972;2023-06-22T23:17:04;96577.94;;;18.31;100.00
76478;BME280;65309;49.790;18.972;2023-06-22T23:22:06;96567.69;;;18.20;100.00
76478;BME280;65309;49.790;18.972;2023-06-22T23:27:09;96553.88;;;18.09;100.00
76478;BME280;65309;49.790;18.972;2023-06-22T23:32:15;96557.00;;;18.06;100.00
76478;BME280;65309;49.790;18.972;2023-06-22T23:37:17;96531.38;;;18.02;100.00
76478;BME280;65309;49.790;18.972;2023-06-22T23:42:19;96542.06;;;18.03;100.00
76478;BME280;65309;49.790;18.972;2023-06-22T23:47:24;96533.84;;;18.05;100.00
76478;BME280;65309;49.790;18.972;2023-06-22T23:52:28;96540.66;;;18.10;100.00
76478;BME280;65309;49.790;18.972;2023-06-22T23:57:30;96530.31;;;18.05;100.00
